Tiempo atmosférico en la estación meteorológica de Es Mercadal, Illes Balears (77 m.)



Fecha
DESCASC
Temp. máxima en grados centígrados (hora)
DESCASC
Temp. mínima en grados centígrados (hora)
DESCASC
Temp. media en grados centígrados
DESCASC
Racha de viento máxima en m/sg (hora)
DESCASC
Velocidad máxima media en intervalos de 10 minutos(hora)
DESCASC
Precipitaciones diarias en mm
DESCASC
Precipitaciones de 00:00 a 06:00 en mm
DESCASC
Precipitaciones de 06:00 a 12:00 en mm
DESCASC
Precipitaciones de 12:00 a 18:00 en mm
DESCASC
Precipitaciones de 18:00 a 24:00 en mm
DESCASC
23-05-2018 23.7 (16:00) 15.7 (00:00) 19.7 7.22 (16:00) 4.72 (17:20) 0.2 0 0.2 0 0
22-05-2018 21.1 (14:00) 14.6 (03:30) 17.9 7.5 (13:40) 4.72 (13:40) 0 0 0 0 0
21-05-2018 18 (16:30) 13.8 (08:00) 15.9 7.78 (16:40) 5.28 (16:40) 6 2.8 2.8 0.4 0
20-05-2018 21.6 (12:40) 13.5 (00:00) 17.6 6.11 (13:20) 4.17 (14:10) 0 0 0 0 0
19-05-2018 21.4 (17:40) 14 (00:00) 17.7 6.11 (13:20) 3.89 (13:40) 0 0 0 0 0
18-05-2018 18.1 (13:10) 14.1 (00:00) 16.1 10.28 (09:30) 6.67 (09:10) 0 0 0 0 0
17-05-2018 19.8 (15:00) 12 (00:00) 15.9 10.28 (11:00) 6.67 (12:30) 0 0 0 0 0
16-05-2018 21.4 (11:20) 11.3 (00:00) 16.3 7.5 (13:40) 4.72 (13:40) 0 0 0 0 0
15-05-2018 19.9 (15:20) 9.7 (00:00) 14.8 10.56 (12:40) 6.94 (10:10) 0 0 0 0 0
14-05-2018 17.7 (13:10) 12.1 (00:00) 14.9 13.61 (05:30) 6.94 (05:30) 0 0 0 0 0
13-05-2018 16.7 (00:10) 10.3 (00:00) 13.5 17.78 (07:10) 11.94 (07:30) 15.6 6.4 9.2 0 0
12-05-2018 20.2 (12:20) 14.3 (00:00) 17.3 12.22 (14:40) 9.44 (15:50) 0 0 0 0 0
11-05-2018 21.5 (14:20) 13.4 (05:50) 17.4 8.89 (20:00) 6.11 (18:10) 0 0 0 0 0
10-05-2018 18.6 (11:20) 14 (00:00) 16.3 10.83 (12:40) 6.67 (12:30) 0 0 0 0 0
09-05-2018 22 (16:10) 14 (00:00) 18 12.5 (19:00) 7.78 (19:30) 14 0 0 0 14
08-05-2018 20.9 (16:10) 12.6 (00:00) 16.8 7.78 (09:50) 5.28 (18:30) 0 0 0 0 0
07-05-2018 20.9 (13:00) 11.9 (00:00) 16.4 5.28 (12:10) 3.61 (19:00) 0 0 0 0 0
06-05-2018 19.9 (14:10) 12.9 (00:00) 16.4 7.78 (13:30) 5.83 (09:50) 0 0 0 0 0
05-05-2018 18.4 (13:50) 12.6 (00:00) 15.5 11.39 (08:20) 7.5 (13:10) 26.4 19 7.4 0 0
04-05-2018 15.8 (00:00) 12 (00:00) 13.9 13.61 (02:40) 8.89 (02:40) 16.4 0.8 8.2 5.4 2
03-05-2018 18.8 (16:30) 11.1 (00:00) 14.9 14.72 (12:00) 9.72 (12:30) 0 0 0 0 0
02-05-2018 16.9 (15:40) 9.8 (00:00) 13.3 13.61 (06:00) 8.89 (06:00) 0.2 0.2 0 0 0
01-05-2018 13.8 (00:40) 9.6 (04:50) 11.7 9.17 (00:20) 5.83 (00:10) 16 9.4 4.4 2.2 0
30-04-2018 19.7 (14:50) 12.9 (00:00) 16.3 12.5 (01:00) 8.89 (01:00) 0 0 0 0 0
29-04-2018 18.2 (16:00) 13.9 (00:00) 16.1 18.89 (16:20) 12.78 (15:30) 1 0 1 0 0
28-04-2018 21 (13:40) 13.1 (00:00) 17.1 10.83 (17:20) 7.5 (17:20) 0 0 0 0 0
27-04-2018 21.8 (17:40) 12.6 (00:00) 17.2 6.94 (18:20) 4.72 (13:30) 0 0 0 0 0
26-04-2018 17.9 (15:10) 12.8 (00:00) 15.3 15.28 (14:50) 10 (14:50) 0 0 0 0 0
25-04-2018 24.5 (13:20) 13.7 (00:00) 19.1 9.44 (11:40) 6.67 (11:40) 0 0 0 0 0
24-04-2018 24.5 (11:20) 13.6 (00:00) 19.1 7.22 (11:30) 5 (16:30) 0 0 0 0 0

Gráficas

Temp. máximas Temp. mínimas Temp. medias Precipitaciones Rachas de viento máximas Velocidades máximas media en intervalos de 10 minutos

Datos horarios

Fecha y hora oficial Temperatura (ºC) Velocidad del viento (km/h) Dirección del viento Racha (km/h) Dirección de racha Precipitación (mm) Presión (hPa) Tendencia (hPa) Humedad (%)
2018-05-23 23:00:00 16.9 9 Sur 14 Sur 0 -- -- 96
2018-05-23 22:00:00 17.1 10 Sur 15 Sur 0 -- -- 95
2018-05-23 21:00:00 17.7 10 Sur 17 Sur 0 -- -- 91
2018-05-23 20:00:00 19.1 12 Sur 21 Sur 0 -- -- 80
2018-05-23 19:00:00 21.3 14 Sudoeste 19 Sur 0 -- -- 66
2018-05-23 18:00:00 21.6 13 Sur 23 Sur 0 -- -- 67
2018-05-23 17:00:00 22.7 16 Sur 22 Sur 0 -- -- 60
2018-05-23 16:00:00 23.7 12 Sudoeste 26 Sudoeste 0 -- -- 50
2018-05-23 15:00:00 23.2 14 Sur 20 Sudoeste 0 -- -- 64
2018-05-23 14:00:00 23.4 13 Sudoeste 22 Sudoeste 0 -- -- 64
2018-05-23 13:00:00 22.6 6 Norte 17 Sudoeste 0 -- -- 72
2018-05-23 12:00:00 23.3 8 Sur 15 Sur 0 -- -- 64
2018-05-23 11:00:00 21.6 11 Sur 19 Sur 0 -- -- 73
2018-05-23 10:00:00 20.9 8 Sudoeste 13 Sur 0 -- -- 81
2018-05-23 09:00:00 18.8 6 Sur 14 Sur 0 -- -- 88
2018-05-23 08:00:00 17 10 Sur 15 Sur 0.2 -- -- 97
2018-05-23 07:00:00 16 11 Sudoeste 18 Sudoeste 0 -- -- 98
2018-05-23 06:00:00 15.7 11 Sudoeste 15 Sudoeste 0 -- -- 99
2018-05-23 05:00:00 15.9 9 Sur 14 Sudoeste 0 -- -- 100
2018-05-23 04:00:00 15.9 9 Sudoeste 15 Sur 0 -- -- 100
2018-05-23 03:00:00 16.1 9 Sur 15 Sudoeste 0 -- -- 100
2018-05-23 02:00:00 15.8 4 Sur 12 Sudoeste 0 -- -- 98
2018-05-23 01:00:00 15.9 5 Sur 15 Sudoeste 0 -- -- 97
2018-05-23 00:00:00 15.7 5 Sudoeste 10 Sur 0 -- -- 95
2018-05-22 23:00:00 16.4 0 Calma 7 Sur 0 -- -- 94
2018-05-22 22:00:00 17.4 0 Calma 7 Sur 0 -- -- 91
2018-05-22 21:00:00 18.2 4 Nordeste 10 Nordeste 0 -- -- 86
2018-05-22 20:00:00 19.6 8 Nordeste 12 Norte 0 -- -- 76
2018-05-22 19:00:00 20.2 10 Norte 18 Norte 0 -- -- 71
2018-05-22 18:00:00 20.9 10 Norte 17 Norte 0 -- -- 72
2018-05-22 17:00:00 20.9 11 Norte 21 Norte 0 -- -- 71
2018-05-22 16:00:00 21.1 12 Norte 21 Norte 0 -- -- 73
2018-05-22 15:00:00 21 13 Norte 25 Norte 0 -- -- 72
2018-05-22 14:00:00 21.1 15 Norte 27 Norte 0 -- -- 72
2018-05-22 13:00:00 20.8 12 Noroeste 24 Noroeste 0 -- -- 70
2018-05-22 12:00:00 19.9 13 Noroeste 24 Norte 0 -- -- 74
2018-05-22 11:00:00 19.6 13 Noroeste 23 Noroeste 0 -- -- 77
2018-05-22 10:00:00 18.5 12 Noroeste 23 Noroeste 0 -- -- 78
2018-05-22 09:00:00 17.6 6 Noroeste 16 Noroeste 0 -- -- 87
2018-05-22 08:00:00 15.8 4 Oeste 7 Oeste 0 -- -- 95
2018-05-22 07:00:00 15.4 3 Sudoeste 14 Sudoeste 0 -- -- 96
2018-05-22 06:00:00 15.2 9 Sudoeste 14 Oeste 0 -- -- 98
2018-05-22 05:00:00 14.8 6 Sudoeste 8 Sudoeste 0 -- -- 99
2018-05-22 04:00:00 14.7 6 Sudoeste 8 Sudoeste 0 -- -- 99
2018-05-22 03:00:00 14.7 3 Sudoeste 10 Noroeste 0 -- -- 98
2018-05-22 02:00:00 14.8 5 Oeste 7 Oeste 0 -- -- 98
2018-05-22 01:00:00 14.9 6 Oeste 9 Oeste 0 -- -- 97
2018-05-22 00:00:00 15.6 2 Sur 8 Oeste 0 -- -- 97
2018-05-21 23:00:00 15.4 4 Oeste 6 Oeste 0 -- -- 96
2018-05-21 22:00:00 15.8 5 Noroeste 8 Noroeste 0 -- -- 92
2018-05-21 21:00:00 16.2 5 Noroeste 9 Norte 0 -- -- 94
2018-05-21 20:00:00 16.9 7 Norte 13 Noroeste 0 -- -- 91
2018-05-21 19:00:00 17 8 Noroeste 25 Norte 0 -- -- 90
2018-05-21 18:00:00 17.3 17 Norte 27 Norte 0 -- -- 85
2018-05-21 17:00:00 17.6 15 Noroeste 28 Noroeste 0 -- -- 84
2018-05-21 16:00:00 17.4 11 Noroeste 23 Oeste 0.2 -- -- 88
2018-05-21 15:00:00 16.3 10 Noroeste 24 Noroeste 0.2 -- -- 92
2018-05-21 14:00:00 17 12 Noroeste 26 Noroeste 0 -- -- 83
2018-05-21 13:00:00 17.3 13 Noroeste 22 Norte 0 -- -- 81
2018-05-21 12:00:00 16.4 13 Noroeste 21 Noroeste 0 -- -- 88
2018-05-21 11:00:00 15.9 10 Noroeste 19 Noroeste 0.2 -- -- 92
2018-05-21 10:00:00 15.5 9 Noroeste 15 Noroeste 0 -- -- 94
2018-05-21 09:00:00 15 7 Norte 12 Norte 0.2 -- -- 97
2018-05-21 08:00:00 13.8 5 Noroeste 14 Norte 1.4 -- -- 95
2018-05-21 07:00:00 14.9 6 Norte 10 Norte 1 -- -- 99
2018-05-21 06:00:00 14.9 4 Noroeste 8 Oeste 1.2 -- -- 98
2018-05-21 05:00:00 15.2 7 Oeste 9 Oeste 0.8 -- -- 97
2018-05-21 04:00:00 15.3 8 Oeste 13 Sudoeste 0.4 -- -- 96
2018-05-21 03:00:00 15.6 10 Sudoeste 13 Sudoeste 0.4 -- -- 97
2018-05-21 02:00:00 15.8 0 Calma 5 Sur 0 -- -- 95
2018-05-21 01:00:00 15.7 3 Sur 6 Oeste 0 -- -- 94
2018-05-21 00:00:00 15.7 4 Sudoeste 7 Oeste 0 -- -- 93
2018-05-20 23:00:00 16 2 Sudoeste 8 Sudoeste 0 -- -- 93
2018-05-20 22:00:00 16.2 6 Sudoeste 8 Sudoeste 0 -- -- 92
2018-05-20 21:00:00 16.8 7 Sudoeste 10 Sudoeste 0 -- -- 88
2018-05-20 20:00:00 17.7 8 Sur 13 Sudoeste 0 -- -- 85
2018-05-20 19:00:00 18.1 10 Sudoeste 18 Sur 0 -- -- 79
2018-05-20 18:00:00 19 13 Sudoeste 21 Sudoeste 0 -- -- 78
2018-05-20 17:00:00 19.8 12 Sudoeste 18 Sur 0 -- -- 79
2018-05-20 16:00:00 19.8 8 Sudoeste 21 Nordeste 0 -- -- 80
2018-05-20 15:00:00 21.3 11 Nordeste 21 Nordeste 0 -- -- 74
2018-05-20 14:00:00 20 13 Nordeste 22 Norte 0 -- -- 77
2018-05-20 13:00:00 21.4 11 Nordeste 18 Nordeste 0 -- -- 68
2018-05-20 12:00:00 20.9 6 Norte 16 Norte 0 -- -- 70
2018-05-20 11:00:00 19.9 7 Norte 14 Norte 0 -- -- 69
2018-05-20 10:00:00 18.8 5 Norte 12 Nordeste 0 -- -- 79
2018-05-20 09:00:00 17.2 9 Norte 13 Norte -- -- -- 91
2018-05-20 08:00:00 16.1 4 Norte 8 Norte 0 -- -- 100
2018-05-20 07:00:00 14.6 5 Norte 7 Norte 0 -- -- 99
2018-05-20 06:00:00 14.3 4 Norte 6 Norte 0 -- -- 99
2018-05-20 05:00:00 14.5 0 Calma 4 Norte 0 -- -- 98
2018-05-20 04:00:00 14 3 Nordeste 4 Nordeste 0 -- -- 97
2018-05-20 03:00:00 13.5 0 Calma 3 Nordeste 0 -- -- 96
2018-05-20 02:00:00 14 0 Calma 4 Sudoeste 0 -- -- 93
2018-05-20 01:00:00 14.6 4 Sudoeste 9 Sur 0 -- -- 94
2018-05-20 00:00:00 14.7 7 Sudoeste 9 Sudoeste 0 -- -- 94
2018-05-19 23:00:00 14.7 6 Sudoeste 8 Sudoeste 0 -- -- 90
2018-05-19 22:00:00 15.5 4 Sudoeste 13 Sudoeste 0 -- -- 88
2018-05-19 21:00:00 16.5 9 Sudoeste 15 Sudoeste 0 -- -- 84
2018-05-19 20:00:00 19.1 12 Sudoeste 18 Sur 0 -- -- 75
2018-05-19 19:00:00 20.3 12 Norte 17 Norte 0 -- -- 60
2018-05-19 18:00:00 20.8 13 Nordeste 19 Nordeste 0 -- -- 59
2018-05-19 17:00:00 21 10 Norte 20 Nordeste 0 -- -- 60
2018-05-19 16:00:00 21 9 Nordeste 18 Nordeste 0 -- -- 62
2018-05-19 15:00:00 20.8 12 Norte 21 Nordeste 0 -- -- 61
2018-05-19 14:00:00 20.2 12 Nordeste 22 Norte 0 -- -- 58
2018-05-19 13:00:00 19.7 11 Nordeste 18 Nordeste 0 -- -- 66
2018-05-19 12:00:00 19.6 11 Nordeste 18 Nordeste 0 -- -- 70
2018-05-19 11:00:00 18.4 7 Nordeste 19 Nordeste 0 -- -- 79
2018-05-19 10:00:00 17.2 10 Nordeste 15 Nordeste 0 -- -- 82
2018-05-19 09:00:00 16.4 10 Nordeste 14 Nordeste 0 -- -- 91
2018-05-19 08:00:00 15.5 4 Norte 9 Norte 0 -- -- 98
2018-05-19 07:00:00 14.6 5 Norte 9 Norte 0 -- -- 99
2018-05-19 06:00:00 14.3 2 Norte 4 Noroeste 0 -- -- 98
2018-05-19 05:00:00 14.2 3 Nordeste 5 Norte 0 -- -- 98
2018-05-19 04:00:00 14.3 0 Calma 4 Norte 0 -- -- 98
2018-05-19 03:00:00 14.1 3 Norte 5 Norte 0 -- -- 98
2018-05-19 02:00:00 14 3 Nordeste 6 Norte 0 -- -- 98
2018-05-19 01:00:00 14.1 2 Nordeste 6 Norte 0 -- -- 97
2018-05-19 00:00:00 14.2 5 Nordeste 7 Nordeste 0 -- -- 97
2018-05-18 23:00:00 14.5 2 Nordeste 5 Este 0 -- -- 95
2018-05-18 22:00:00 14.9 2 Norte 9 Nordeste 0 -- -- 95
2018-05-18 21:00:00 15.6 6 Nordeste 19 Nordeste 0 -- -- 92
2018-05-18 20:00:00 16.5 14 Nordeste 25 Nordeste 0 -- -- 89
2018-05-18 19:00:00 16.6 15 Nordeste 24 Nordeste 0 -- -- 89
2018-05-18 18:00:00 17.1 15 Nordeste 28 Nordeste 0 -- -- 86
2018-05-18 17:00:00 17.2 19 Nordeste 29 Norte 0 -- -- 86
2018-05-18 16:00:00 17 18 Nordeste 29 Nordeste 0 -- -- 85
2018-05-18 15:00:00 17.2 17 Nordeste 28 Nordeste 0 -- -- 85
2018-05-18 14:00:00 17.5 21 Nordeste 33 Nordeste 0 -- -- 83
2018-05-18 13:00:00 18 22 Nordeste 33 Nordeste 0 -- -- 80
2018-05-18 12:00:00 16.8 19 Nordeste 32 Nordeste 0 -- -- 87
2018-05-18 11:00:00 17.4 19 Nordeste 32 Nordeste 0 -- -- 83
2018-05-18 10:00:00 16.2 19 Nordeste 37 Nordeste 0 -- -- 89
2018-05-18 09:00:00 16.2 21 Nordeste 30 Nordeste 0 -- -- 90
2018-05-18 08:00:00 16 13 Nordeste 23 Nordeste 0 -- -- 88
2018-05-18 07:00:00 15.5 12 Nordeste 21 Nordeste 0 -- -- 91
2018-05-18 06:00:00 15.4 14 Nordeste 23 Nordeste 0 -- -- 88
2018-05-18 05:00:00 15.4 12 Norte 21 Norte 0 -- -- 90
2018-05-18 04:00:00 15.5 12 Norte 22 Nordeste 0 -- -- 88
2018-05-18 03:00:00 15.3 12 Norte 27 Norte 0 -- -- 89
2018-05-18 02:00:00 15.1 18 Norte 26 Norte 0 -- -- 88
2018-05-18 01:00:00 14.6 14 Norte 20 Norte 0 -- -- 89
2018-05-18 00:00:00 14.8 9 Norte 21 Norte 0 -- -- 91
2018-05-17 23:00:00 14.9 12 Norte 17 Norte 0 -- -- 88
2018-05-17 22:00:00 14.7 7 Norte 11 Norte 0 -- -- 86
2018-05-17 21:00:00 16 5 Norte 7 Norte 0 -- -- 82
2018-05-17 20:00:00 17 6 Noroeste 15 Norte 0 -- -- 77
2018-05-17 19:00:00 17.3 9 Norte 18 Norte 0 -- -- 76
2018-05-17 18:00:00 17.6 14 Norte 23 Norte 0 -- -- 78
2018-05-17 17:00:00 18.5 12 Norte 27 Norte 0 -- -- 75
2018-05-17 16:00:00 18.9 18 Norte 31 Norte 0 -- -- 74
2018-05-17 15:00:00 19.8 18 Norte 33 Norte 0 -- -- 71
2018-05-17 14:00:00 19 22 Norte 33 Norte 0 -- -- 71
2018-05-17 13:00:00 19 22 Norte 36 Norte 0 -- -- 72
2018-05-17 12:00:00 19.3 22 Nordeste 37 Norte 0 -- -- 68
2018-05-17 11:00:00 19.2 22 Norte 37 Norte 0 -- -- 69
2018-05-17 10:00:00 18.7 17 Norte 26 Norte 0 -- -- 67
2018-05-17 09:00:00 17.6 7 Norte 14 Norte 0 -- -- 82
2018-05-17 08:00:00 15.6 0 Calma 9 Sudoeste 0 -- -- 94
2018-05-17 07:00:00 13.5 2 Sur 6 Oeste 0 -- -- 99
2018-05-17 06:00:00 12.7 2 Este 4 Sudoeste 0 -- -- 97
2018-05-17 05:00:00 13.3 0 Calma 9 Sur 0 -- -- 96
2018-05-17 04:00:00 13.8 7 Sur 10 Sudoeste 0 -- -- 96
2018-05-17 03:00:00 13.9 6 Sudoeste 12 Sudoeste 0 -- -- 95
2018-05-17 02:00:00 14.2 9 Sudoeste 15 Sudoeste 0 -- -- 94
2018-05-17 01:00:00 14.3 9 Sudoeste 12 Sudoeste -- -- -- 93
2018-05-17 00:00:00 14.3 7 Sur 10 Sur 0 -- -- 92
2018-05-16 23:00:00 14.2 8 Sudoeste 9 Sudoeste 0 -- -- 92
2018-05-16 22:00:00 14.9 2 Sudoeste 8 Oeste 0 -- -- 87
2018-05-16 21:00:00 16.2 7 Sudoeste 11 Sudoeste 0 -- -- 81
2018-05-16 20:00:00 18.4 4 Norte 10 Nordeste 0 -- -- 72
2018-05-16 19:00:00 18.8 8 Norte 17 Noroeste 0 -- -- 70
2018-05-16 18:00:00 19.2 11 Norte 17 Norte 0 -- -- 71
2018-05-16 17:00:00 20 5 Sudoeste 19 Sur 0 -- -- 66
2018-05-16 16:00:00 19 13 Sur 19 Sur 0 -- -- 63
2018-05-16 15:00:00 20.7 9 Sudoeste 23 Sudoeste 0 -- -- 58
2018-05-16 14:00:00 20.2 15 Sudoeste 27 Sur 0 -- -- 57
2018-05-16 13:00:00 20 16 Sur 26 Sudoeste 0 -- -- 56
2018-05-16 12:00:00 20.7 17 Sur 24 Sur 0 -- -- 56
2018-05-16 11:00:00 20.7 6 Sudeste 12 Sudeste 0 -- -- 53
2018-05-16 10:00:00 18.7 2 Sudeste 7 Sur 0 -- -- 63
2018-05-16 09:00:00 16.3 0 Calma 4 Oeste 0 -- -- 78
2018-05-16 08:00:00 12.8 3 Nordeste 4 Nordeste 0 -- -- 91
2018-05-16 07:00:00 12.1 -- -- -- -- 0 -- -- 84
2018-05-16 06:00:00 11.5 0 Calma 4 Norte 0 -- -- 80
2018-05-16 05:00:00 11.5 0 Calma 5 Sudoeste 0 -- -- 77
2018-05-16 04:00:00 11.5 3 Sudoeste 6 Sudoeste 0 -- -- 75
2018-05-16 03:00:00 11.9 0 Calma 5 Sudoeste 0 -- -- 80
2018-05-16 02:00:00 12.1 2 Sudoeste 6 Oeste 0 -- -- 88
2018-05-16 01:00:00 13 0 Calma 15 Sur 0 -- -- 89
2018-05-16 00:00:00 12.2 5 Sudoeste 8 Sur 0 -- -- 90
2018-05-15 23:00:00 12.9 3 Sudoeste 6 Sur 0 -- -- 88
2018-05-15 22:00:00 13.8 0 Calma 8 Sudoeste 0 -- -- 80
2018-05-15 21:00:00 15.2 5 Sudoeste 17 Oeste 0 -- -- 65
2018-05-15 20:00:00 17.4 12 Oeste 23 Sudoeste 0 -- -- 58
2018-05-15 19:00:00 18 18 Oeste 28 Sudoeste 0 -- -- 58
2018-05-15 18:00:00 18.9 19 Sudoeste 29 Sudoeste 0 -- -- 52
2018-05-15 17:00:00 19.2 22 Oeste 33 Sudoeste 0 -- -- 56
2018-05-15 16:00:00 19.5 23 Sudoeste 35 Oeste 0 -- -- 54
2018-05-15 15:00:00 19.4 21 Oeste 34 Sudoeste 0 -- -- 55
2018-05-15 14:00:00 19.7 19 Oeste 36 Oeste 0 -- -- 64
2018-05-15 13:00:00 18.8 23 Oeste 38 Oeste 0 -- -- 64
2018-05-15 12:00:00 17.9 19 Sudoeste 33 Sudoeste 0 -- -- 72
2018-05-15 11:00:00 16.9 23 Sudoeste 35 Sudoeste 0 -- -- 69
2018-05-15 10:00:00 15.6 22 Sudoeste 34 Sudoeste 0 -- -- 66
2018-05-15 09:00:00 13.8 14 Sudoeste 21 Sudoeste 0 -- -- 74
2018-05-15 08:00:00 12.3 9 Sur 11 Sur 0 -- -- 78
2018-05-15 07:00:00 10 6 Sur 10 Sur 0 -- -- 86
2018-05-15 06:00:00 10 9 Sur 13 Sudoeste 0 -- -- 90
2018-05-15 05:00:00 9.8 5 Sur 9 Sur 0 -- -- 92
2018-05-15 04:00:00 10.1 6 Sur 8 Sur 0 -- -- 91
2018-05-15 03:00:00 10.9 3 Sudoeste 11 Nordeste 0 -- -- 88
2018-05-15 02:00:00 11.6 8 Nordeste 14 Nordeste 0 -- -- 86
2018-05-15 01:00:00 12.6 10 Nordeste 17 Nordeste 0 -- -- 84
2018-05-15 00:00:00 12.4 6 Norte 12 Norte 0 -- -- 89
2018-05-14 23:00:00 12.7 0 Calma 3 Oeste 0 -- -- 80
2018-05-14 22:00:00 12.9 0 Calma 9 Noroeste 0 -- -- 76
2018-05-14 21:00:00 13.3 7 Noroeste 10 Norte 0 -- -- 72
2018-05-14 20:00:00 14.5 7 Norte 17 Norte 0 -- -- 70
2018-05-14 19:00:00 14.7 13 Norte 23 Norte 0 -- -- 66
2018-05-14 18:00:00 16.1 17 Norte 25 Norte 0 -- -- 64
2018-05-14 17:00:00 16.4 11 Norte 22 Norte 0 -- -- 64
2018-05-14 16:00:00 15.5 11 Norte 24 Norte 0 -- -- 67
2018-05-14 15:00:00 16 15 Norte 25 Nordeste 0 -- -- 66
2018-05-14 14:00:00 16 12 Norte 22 Oeste 0 -- -- 66
2018-05-14 13:00:00 16.8 11 Noroeste 31 Oeste 0 -- -- 63
2018-05-14 12:00:00 15.5 15 Oeste 26 Noroeste 0 -- -- 68
2018-05-14 11:00:00 16.5 13 Norte 28 Oeste 0 -- -- 66
2018-05-14 10:00:00 15.6 19 Oeste 33 Oeste 0 -- -- 62
2018-05-14 09:00:00 15.1 15 Oeste 27 Oeste 0 -- -- 65
2018-05-14 08:00:00 14.2 8 Noroeste 18 Noroeste 0 -- -- 66
2018-05-14 07:00:00 12.7 13 Oeste 26 Oeste 0 -- -- 69
2018-05-14 06:00:00 13.7 14 Oeste 49 Sudoeste 0 -- -- 67
2018-05-14 05:00:00 12.6 14 Sudoeste 27 Sudoeste 0 -- -- 77
2018-05-14 04:00:00 13.2 15 Sudoeste 27 Sudoeste 0 -- -- 77
2018-05-14 03:00:00 13.1 13 Sudoeste 27 Sudoeste 0 -- -- 76
2018-05-14 02:00:00 13.4 19 Sudoeste 31 Sudoeste 0 -- -- 76
2018-05-14 01:00:00 12.6 21 Sudoeste 29 Sudoeste 0 -- -- 81
2018-05-11 20:00:00 17.9 19 Sur 32 Sur 0 -- -- 74
2018-05-11 19:00:00 18.8 22 Sur 29 Sudoeste 0 -- -- 74
2018-05-11 18:00:00 19.6 21 Sudoeste 28 Sudoeste 0 -- -- 70
2018-05-11 17:00:00 20.2 18 Sur 31 Sudoeste 0 -- -- 68
2018-05-11 16:00:00 20.9 18 Sudoeste 26 Sudoeste 0 -- -- 61
2018-05-11 15:00:00 21.5 15 Sudoeste 23 Sur 0 -- -- 58
2018-05-11 14:00:00 21.4 14 Sur 22 Sur 0 -- -- 57
2018-05-11 13:00:00 21.3 12 Sur 19 Sur 0 -- -- 63
2018-05-11 12:00:00 20.8 12 Sudoeste 20 Sudoeste 0 -- -- 62
2018-05-11 11:00:00 19.9 9 Sudoeste 22 Sur 0 -- -- 74
2018-05-11 10:00:00 18.9 8 Sudoeste 14 Sudoeste 0 -- -- 73
2018-05-11 09:00:00 17 8 Oeste 13 Sudoeste 0 -- -- 82
2018-05-11 08:00:00 15.4 10 Sudoeste 14 Sudoeste 0 -- -- 91
2018-05-11 07:00:00 14.1 6 Sur 13 Sudoeste 0 -- -- 94
2018-05-11 06:00:00 13.4 5 Sudoeste 10 Sudoeste 0 -- -- 93
2018-05-11 05:00:00 13.5 4 Sudoeste 6 Sudoeste 0 -- -- 90
2018-05-11 04:00:00 14 6 Sudoeste 8 Sudoeste 0 -- -- 88
2018-05-11 03:00:00 14.1 0 Calma 6 Nordeste 0 -- -- 87
2018-05-11 02:00:00 14.6 0 Calma 4 Oeste 0 -- -- 87
2018-05-11 01:00:00 14.2 2 Norte 6 Norte 0 -- -- 89
2018-05-11 00:00:00 14.3 5 Norte 8 Norte 0 -- -- 88
2018-05-10 23:00:00 14.3 8 Norte 10 Norte 0 -- -- 87
2018-05-10 22:00:00 14.5 6 Nordeste 15 Nordeste 0 -- -- 86
2018-05-10 21:00:00 15.1 11 Norte 19 Nordeste 0 -- -- 81
2018-05-10 20:00:00 16 12 Nordeste 28 Nordeste 0 -- -- 77
2018-05-10 19:00:00 16.8 17 Nordeste 28 Norte 0 -- -- 75
2018-05-10 18:00:00 17.1 19 Nordeste 30 Nordeste 0 -- -- 74
2018-05-10 17:00:00 17.5 19 Norte 31 Nordeste 0 -- -- 70
2018-05-10 16:00:00 17.7 17 Nordeste 31 Nordeste 0 -- -- 72
2018-05-10 15:00:00 17.1 18 Nordeste 31 Nordeste 0 -- -- 78
2018-05-10 14:00:00 17.8 17 Norte 30 Norte 0 -- -- 72
2018-05-10 13:00:00 16.8 21 Norte 39 Norte 0 -- -- 79
2018-05-10 12:00:00 18.6 22 Norte 33 Norte 0 -- -- 71
2018-05-10 11:00:00 18.4 17 Nordeste 30 Nordeste 0 -- -- 81
2018-05-10 10:00:00 17 8 Norte 14 Norte 0 -- -- 94
2018-05-10 09:00:00 16.3 5 Nordeste 9 Nordeste 0 -- -- 99
2018-05-10 08:00:00 15.3 2 Oeste 8 Sur 0 -- -- 100
2018-05-10 07:00:00 14.8 5 Sudoeste 8 Sudoeste 0 -- -- 100
2018-05-10 06:00:00 14.6 0 Calma 8 Oeste 0 -- -- 100
2018-05-10 05:00:00 14.6 7 Sudoeste 14 Sudoeste 0 -- -- 99
2018-05-10 04:00:00 15.2 0 Calma 16 Sudoeste 0 -- -- 99
2018-05-10 03:00:00 15.4 12 Sudoeste 24 Sudoeste 0 -- -- 100
2018-05-10 02:00:00 15.4 20 Sudoeste 28 Sudoeste 0 -- -- 100
2018-05-10 01:00:00 15.3 14 Sudoeste 29 Sudoeste 0 -- -- 100
2018-05-10 00:00:00 15.1 16 Sudoeste 28 Sudoeste 0 -- -- 100
2018-05-09 23:00:00 15.3 14 Sudoeste 22 Sudoeste 0 -- -- 100
2018-05-09 22:00:00 15 14 Sudoeste 22 Sudoeste 0.2 -- -- 100
2018-05-09 21:00:00 14.6 14 Sur 22 Sudoeste 1.8 -- -- 100
2018-05-09 20:00:00 14.1 17 Sur 39 Sudoeste 9.2 -- -- 99
2018-05-09 19:00:00 15.6 24 Sudoeste 45 Sur 2.8 -- -- 93
2018-05-09 18:00:00 17.9 15 Sudoeste 28 Sur 0 -- -- 85
2018-05-09 17:00:00 20.9 18 Sur 26 Sur 0 -- -- 71
2018-05-09 16:00:00 21 16 Sur 27 Sudeste 0 -- -- 72
2018-05-09 15:00:00 20.8 5 Sudeste 9 Sudeste 0 -- -- 74
2018-05-09 14:00:00 18.8 3 Este 12 Norte 0 -- -- 80
2018-05-09 13:00:00 17.3 10 Norte 20 Norte 0 -- -- 86
2018-05-09 12:00:00 17.2 15 Norte 23 Norte 0 -- -- 85
2018-05-09 11:00:00 18.6 8 Nordeste 17 Oeste 0 -- -- 81
2018-05-09 10:00:00 19.7 8 Sudoeste 16 Oeste 0 -- -- 78
2018-05-09 09:00:00 17.6 6 Sudoeste 22 Sudoeste 0 -- -- 89
2018-05-09 08:00:00 15.3 14 Sudoeste 25 Sudoeste 0 -- -- 96
2018-05-09 07:00:00 14.9 16 Sudoeste 23 Sudoeste 0 -- -- 98
2018-05-09 06:00:00 14.7 9 Sudoeste 14 Sudoeste 0 -- -- 98
2018-05-09 05:00:00 14.8 4 Sur 17 Sudoeste 0 -- -- 98
2018-05-09 04:00:00 14.2 5 Sudoeste 10 Oeste 0 -- -- 96
2018-05-09 03:00:00 14.1 2 Sudoeste 5 Sudoeste 0 -- -- 98
2018-05-09 02:00:00 14.4 2 Nordeste 6 Nordeste 0 -- -- 98
2018-05-09 01:00:00 14.5 2 Norte 5 Norte -- -- -- 97
2018-05-09 00:00:00 14.7 0 Calma 9 Norte 0 -- -- 97
2018-05-08 23:00:00 14.6 0 Calma 9 Norte 0 -- -- 95
2018-05-08 22:00:00 14.9 4 Noroeste 11 Noroeste 0 -- -- 94
2018-05-08 21:00:00 15.7 8 Oeste 14 Oeste -- -- -- 90
2018-05-08 20:00:00 18.1 9 Oeste 20 Sudoeste 0 -- -- 81
2018-05-08 19:00:00 19 13 Oeste 25 Sudoeste 0 -- -- 78
2018-05-08 18:00:00 19.8 15 Oeste 19 Sudoeste 0 -- -- 72
2018-05-08 17:00:00 18.6 10 Norte 19 Sudoeste 0 -- -- 80
2018-05-08 16:00:00 20.4 7 Noroeste 18 Norte 0 -- -- 76
2018-05-08 15:00:00 19.1 12 Norte 24 Norte 0 -- -- 77
2018-05-08 14:00:00 19.3 13 Norte 25 Norte 0 -- -- 76
2018-05-08 13:00:00 18.8 14 Norte 23 Norte 0 -- -- 78
2018-05-08 12:00:00 17.8 14 Norte 23 Norte 0 -- -- 80
2018-05-08 11:00:00 17.6 12 Noroeste 24 Noroeste 0 -- -- 83
2018-05-08 10:00:00 17.2 18 Noroeste 28 Oeste 0 -- -- 84
2018-05-08 09:00:00 16.9 8 Oeste 17 Oeste 0 -- -- 86
2018-05-08 08:00:00 15.9 0 Calma 4 Sur 0 -- -- 91
2018-05-08 07:00:00 12.9 3 Sudoeste 5 Sudoeste 0 -- -- 99
2018-05-08 06:00:00 13 2 Oeste 6 Sur 0 -- -- 99
2018-05-08 05:00:00 13.8 3 Sur 10 Sudoeste 0 -- -- 98
2018-05-08 04:00:00 14.2 7 Sudoeste 10 Sur 0 -- -- 97
2018-05-08 03:00:00 14.2 5 Sudoeste 10 Sudoeste 0 -- -- 98
2018-05-08 02:00:00 13.8 3 Sur 4 Sur 0 -- -- 99
2018-05-08 01:00:00 12.7 3 Sur 5 Oeste 0 -- -- 99
2018-05-08 00:00:00 13 3 Sudoeste 5 Sudoeste 0 -- -- 99
2018-05-07 23:00:00 13.3 2 Sur 4 Sur 0 -- -- 96
2018-05-07 22:00:00 14.3 2 Norte 5 Norte 0 -- -- 96
2018-05-07 21:00:00 14.9 3 Noroeste 11 Norte 0 -- -- 94
2018-05-07 20:00:00 16.7 9 Norte 16 Norte 0 -- -- 87
2018-05-07 19:00:00 17.6 13 Norte 17 Norte 0 -- -- 84
2018-05-07 18:00:00 18.8 11 Norte 16 Norte 0 -- -- 81
2018-05-07 17:00:00 19.6 8 Norte 17 Noroeste 0 -- -- 78
2018-05-07 16:00:00 18.7 9 Noroeste 16 Norte 0 -- -- 79
2018-05-07 15:00:00 20.2 4 Nordeste 18 Nordeste 0 -- -- 73
2018-05-07 14:00:00 19 9 Norte 18 Sur 0 -- -- 78
2018-05-07 13:00:00 20.9 7 Sudoeste 19 Nordeste 0 -- -- 70
2018-05-07 12:00:00 19.4 9 Norte 15 Norte 0 -- -- 74
2018-05-07 11:00:00 19.1 3 Nordeste 9 Norte 0 -- -- 74
2018-05-07 10:00:00 17.1 2 Norte 8 Oeste 0 -- -- 81
2018-05-07 09:00:00 16 5 Nordeste 8 Norte 0 -- -- 92
2018-05-07 08:00:00 13.9 0 Calma 6 Sudeste 0 -- -- 100
2018-05-07 07:00:00 12.9 4 Sur 7 Sur 0 -- -- 100
2018-05-07 06:00:00 12.1 3 Sur 4 Sur 0 -- -- 100
2018-05-07 05:00:00 12 3 Sudoeste 5 Oeste 0 -- -- 100
2018-05-07 04:00:00 12.1 2 Oeste 3 Oeste 0 -- -- 100
2018-05-07 03:00:00 12.4 0 Calma 4 Nordeste 0 -- -- 100
2018-05-07 02:00:00 12.7 0 Calma 2 Sudoeste 0 -- -- 99
2018-05-07 01:00:00 13.1 2 Sudeste 6 Sudoeste 0 -- -- 99
2018-05-07 00:00:00 13.4 5 Sudoeste 9 Sudoeste 0 -- -- 99
2018-05-06 23:00:00 13.5 6 Sudoeste 8 Sudoeste 0 -- -- 98
2018-05-06 22:00:00 13.9 0 Calma 4 Oeste 0 -- -- 95
2018-05-06 21:00:00 15.3 0 Calma 9 Nordeste 0 -- -- 92
2018-05-06 20:00:00 16.9 8 Nordeste 18 Nordeste 0 -- -- 85
2018-05-06 19:00:00 17.8 9 Norte 16 Nordeste 0 -- -- 82
2018-05-06 18:00:00 18.5 9 Norte 20 Norte 0 -- -- 80
2018-05-06 17:00:00 18.9 11 Nordeste 22 Nordeste 0 -- -- 80
2018-05-06 16:00:00 19.1 14 Nordeste 21 Norte 0 -- -- 78
2018-05-06 15:00:00 19.3 15 Nordeste 22 Nordeste 0 -- -- 77
2018-05-06 14:00:00 19.5 15 Nordeste 28 Norte 0 -- -- 73
2018-05-06 13:00:00 18.7 14 Nordeste 24 Nordeste 0 -- -- 80
2018-05-06 12:00:00 19 14 Norte 22 Norte 0 -- -- 80
2018-05-06 11:00:00 17.6 14 Norte 23 Norte 0 -- -- 85
2018-05-06 10:00:00 16.3 18 Norte 26 Norte 0 -- -- 91
2018-05-06 09:00:00 15.7 14 Norte 18 Norte 0 -- -- 96
2018-05-06 08:00:00 15.1 5 Noroeste 12 Noroeste 0 -- -- 99
2018-05-06 07:00:00 14.2 4 Norte 10 Norte -- -- -- 100
2018-05-06 06:00:00 14.1 6 Noroeste 10 Noroeste 0 -- -- 100
2018-05-06 05:00:00 13.7 7 Norte 10 Noroeste 0 -- -- 100
2018-05-06 04:00:00 13.6 9 Norte 12 Norte 0 -- -- 100
2018-05-06 03:00:00 13.4 4 Norte 10 Norte 0 -- -- 99
2018-05-06 02:00:00 13.7 2 Norte 9 Norte 0 -- -- 98
2018-05-06 01:00:00 14.1 6 Norte 16 Norte 0 -- -- 98
2018-05-06 00:00:00 14.4 9 Norte 17 Norte 0 -- -- 98
2018-05-05 23:00:00 14.4 9 Norte 18 Norte 0 -- -- 98
2018-05-05 22:00:00 14.5 9 Norte 18 Norte 0 -- -- 98
2018-05-05 21:00:00 14.7 8 Norte 25 Nordeste 0 -- -- 97
2018-05-05 20:00:00 15.3 17 Norte 29 Norte 0 -- -- 96
2018-05-05 19:00:00 16.4 17 Norte 32 Norte 0 -- -- 92
2018-05-05 18:00:00 16.6 22 Norte 35 Nordeste 0 -- -- 90
2018-05-05 17:00:00 17.4 25 Norte 34 Norte 0 -- -- 87
2018-05-05 16:00:00 17.8 23 Nordeste 40 Nordeste 0 -- -- 82
2018-05-05 15:00:00 18.3 21 Norte 40 Nordeste 0 -- -- 85
2018-05-05 14:00:00 18.2 21 Norte 40 Nordeste 0 -- -- 85
2018-05-05 13:00:00 17.4 22 Nordeste 37 Norte 0 -- -- 88
2018-05-05 12:00:00 15.9 23 Norte 37 Norte 0 -- -- 93
2018-05-05 11:00:00 14.8 16 Norte 26 Norte 0 -- -- 95
2018-05-05 10:00:00 14.1 18 Norte 32 Noroeste 0 -- -- 98
2018-05-05 09:00:00 13.6 19 Noroeste 41 Noroeste 1.6 -- -- 100
2018-05-05 08:00:00 13.4 20 Noroeste 35 Noroeste 1 -- -- 100
2018-05-05 07:00:00 13.3 17 Noroeste 37 Noroeste 4.8 -- -- 100
2018-05-05 06:00:00 13.2 18 Noroeste 29 Noroeste 3 -- -- 100
2018-05-05 05:00:00 13.2 15 Noroeste 33 Noroeste 6.8 -- -- 100
2018-05-05 04:00:00 13.1 18 Norte 33 Noroeste 4.6 -- -- 100
2018-05-05 03:00:00 13 14 Norte 32 Norte 2.2 -- -- 100
2018-05-05 02:00:00 13 20 Norte 33 Noroeste 1.6 -- -- 100
2018-05-05 01:00:00 12.9 18 Noroeste 37 Noroeste 0.8 -- -- 100
2018-05-05 00:00:00 12.6 24 Noroeste 47 Norte 0.8 -- -- 99
2018-05-04 23:00:00 13.7 26 Norte 39 Norte 0.2 -- -- 90
2018-05-04 22:00:00 13.3 19 Noroeste 33 Noroeste 0.8 -- -- 92
2018-05-04 21:00:00 13 15 Noroeste 31 Noroeste 0.2 -- -- 95
2018-05-04 20:00:00 13.1 16 Noroeste 33 Noroeste 0 -- -- 92
2018-05-04 19:00:00 13.1 18 Noroeste 36 Noroeste 0 -- -- 93
2018-05-04 18:00:00 13.2 16 Noroeste 23 Noroeste 0.4 -- -- 94
2018-05-04 17:00:00 13 14 Noroeste 32 Noroeste 0.2 -- -- 97
2018-05-04 16:00:00 12.5 19 Noroeste 39 Noroeste 0.6 -- -- 99
2018-05-04 15:00:00 12.8 14 Noroeste 38 Oeste 1 -- -- 97
2018-05-04 14:00:00 13.3 13 Noroeste 35 Noroeste 0.8 -- -- 96
2018-05-04 13:00:00 12.4 18 Noroeste 29 Norte 2.4 -- -- 97
2018-05-04 12:00:00 12.2 18 Norte 32 Noroeste 2.6 -- -- 97
2018-05-04 11:00:00 12.5 18 Noroeste 33 Noroeste 2 -- -- 96
2018-05-04 10:00:00 12.9 10 Noroeste 26 Noroeste 0.2 -- -- 97
2018-05-04 09:00:00 12.8 8 Norte 26 Noroeste 1.2 -- -- 94
2018-05-04 08:00:00 13.1 13 Oeste 26 Oeste 1 -- -- 93
2018-05-04 07:00:00 13.3 12 Oeste 26 Oeste 1.2 -- -- 94
2018-05-04 06:00:00 13.3 15 Oeste 27 Noroeste 0.4 -- -- 92
2018-05-04 05:00:00 13.2 20 Noroeste 42 Norte 0.4 -- -- 91
2018-05-04 04:00:00 13.3 28 Norte 45 Norte 0 -- -- 87
2018-05-04 03:00:00 13.7 24 Norte 49 Norte 0 -- -- 84
2018-05-04 02:00:00 14.8 25 Norte 48 Norte 0 -- -- 79
2018-05-04 01:00:00 15.8 30 Norte 40 Norte 0 -- -- 72
2018-05-04 00:00:00 15.8 21 Norte 33 Noroeste 0 -- -- 71
2018-05-03 23:00:00 15.5 17 Noroeste 26 Noroeste 0 -- -- 71
2018-05-03 22:00:00 14.5 11 Noroeste 23 Norte 0 -- -- 73
2018-05-03 21:00:00 14.4 10 Oeste 25 Noroeste 0 -- -- 76
2018-05-03 20:00:00 16.7 13 Noroeste 32 Noroeste 0 -- -- 62
2018-05-03 19:00:00 17.6 17 Noroeste 39 Noroeste -- -- -- 60
2018-05-03 18:00:00 17.9 24 Noroeste 48 Noroeste 0 -- -- 63
2018-05-03 17:00:00 18.4 23 Noroeste 41 Oeste 0 -- -- 62
2018-05-03 16:00:00 18.1 19 Noroeste 37 Noroeste 0 -- -- 61
2018-05-03 15:00:00 17.8 23 Noroeste 45 Noroeste 0 -- -- 64
2018-05-03 14:00:00 17 26 Noroeste 45 Noroeste 0 -- -- 75
2018-05-03 13:00:00 17.1 32 Norte 51 Norte 0 -- -- 65
2018-05-03 12:00:00 17.4 30 Norte 53 Norte 0 -- -- 53
2018-05-03 11:00:00 16.6 23 Norte 33 Norte 0 -- -- 62
2018-05-03 10:00:00 16.3 16 Norte 32 Norte 0 -- -- 62
2018-05-03 09:00:00 15.7 13 Norte 22 Norte 0 -- -- 72
2018-05-03 08:00:00 13.5 3 Norte 7 Norte 0 -- -- 82
2018-05-03 07:00:00 11.7 4 Nordeste 5 Nordeste 0 -- -- 88
2018-05-03 06:00:00 11.5 4 Nordeste 9 Norte 0 -- -- 80
2018-05-03 05:00:00 11.1 7 Norte 10 Nordeste 0 -- -- 77
2018-05-03 04:00:00 12.1 3 Oeste 19 Oeste 0 -- -- 70
2018-05-03 03:00:00 12.7 12 Oeste 22 Noroeste 0 -- -- 70
2018-05-03 02:00:00 13.4 14 Oeste 28 Oeste 0 -- -- 62
2018-05-03 01:00:00 13 14 Oeste 27 Oeste 0 -- -- 72
2018-05-03 00:00:00 12.6 17 Oeste 24 Oeste 0 -- -- 78
2018-05-02 23:00:00 11.5 8 Oeste 18 Oeste 0 -- -- 81
2018-05-02 22:00:00 11.4 6 Oeste 12 Oeste 0 -- -- 81
2018-05-02 21:00:00 12.5 8 Noroeste 21 Noroeste 0 -- -- 74
2018-05-02 20:00:00 14.6 14 Noroeste 25 Noroeste 0 -- -- 67
2018-05-02 19:00:00 15.6 13 Noroeste 34 Noroeste 0 -- -- 55
2018-05-02 18:00:00 15.9 22 Noroeste 39 Noroeste 0 -- -- 51
2018-05-02 17:00:00 16.5 19 Noroeste 39 Oeste 0 -- -- 48
2018-05-02 16:00:00 16.9 21 Noroeste 39 Noroeste 0 -- -- 45
2018-05-02 15:00:00 16 24 Noroeste 41 Norte 0 -- -- 57
2018-05-02 14:00:00 16 22 Noroeste 38 Norte 0 -- -- 45
2018-05-02 13:00:00 16 22 Noroeste 41 Noroeste 0 -- -- 65
2018-05-02 12:00:00 15 23 Noroeste 36 Noroeste 0 -- -- 65
2018-05-02 11:00:00 15.3 23 Norte 43 Norte 0 -- -- 57
2018-05-02 10:00:00 14.6 26 Noroeste 45 Norte 0 -- -- 57
2018-05-02 09:00:00 13.8 27 Noroeste 44 Oeste 0 -- -- 61
2018-05-02 08:00:00 12.8 23 Noroeste 43 Noroeste 0 -- -- 68
2018-05-02 07:00:00 12.4 23 Noroeste 48 Norte 0 -- -- 69
2018-05-02 06:00:00 12.5 32 Norte 49 Norte 0 -- -- 70
2018-05-02 05:00:00 12.3 28 Norte 44 Norte 0 -- -- 68
2018-05-02 04:00:00 12.3 30 Norte 47 Norte 0 -- -- 71
2018-05-02 03:00:00 11.6 15 Norte 43 Norte 0 -- -- 83
2018-05-02 02:00:00 10.5 14 Norte 45 Norte 0.2 -- -- 94
2018-05-02 01:00:00 12.7 26 Norte 42 Noroeste 0 -- -- 74
2018-05-02 00:00:00 12.9 20 Norte 30 Norte 0 -- -- 73
2018-05-01 23:00:00 12 17 Norte 29 Norte -- -- -- 78
2018-05-01 22:00:00 11.6 15 Norte 31 Norte 0 -- -- 81
2018-05-01 21:00:00 12.1 18 Norte 31 Norte 0 -- -- 82
2018-05-01 20:00:00 12.6 18 Norte 29 Norte 0 -- -- 77
2018-05-01 19:00:00 12.8 15 Norte 28 Norte 0 -- -- 74
2018-05-01 18:00:00 12.6 15 Nordeste 29 Nordeste 0 -- -- 79
2018-05-01 17:00:00 12.6 21 Norte 30 Nordeste 0 -- -- 79
2018-05-01 16:00:00 11.7 17 Nordeste 28 Nordeste 0.6 -- -- 91
2018-05-01 15:00:00 10.6 14 Norte 31 Norte 0.8 -- -- 96
2018-05-01 14:00:00 10.6 19 Norte 33 Norte 0.6 -- -- 93
2018-05-01 13:00:00 11.6 11 Nordeste 29 Nordeste 0.2 -- -- 91
2018-05-01 12:00:00 12.2 14 Nordeste 22 Norte 0.6 -- -- 94
2018-05-01 11:00:00 12 12 Nordeste 19 Nordeste 0.8 -- -- 96
2018-05-01 10:00:00 11.9 9 Norte 16 Norte 1.4 -- -- 97
2018-05-01 09:00:00 11.1 2 Sur 9 Sudoeste 0.6 -- -- 99
2018-05-01 08:00:00 10.5 5 Sur 10 Oeste 0.8 -- -- 99
2018-05-01 07:00:00 9.9 6 Sudoeste 21 Sudeste 0.2 -- -- 98
2018-05-01 06:00:00 9.7 4 Sudoeste 16 Sudeste 1 -- -- 98
2018-05-01 05:00:00 9.7 8 Sur 27 Sur 7 -- -- 97
2018-05-01 04:00:00 12.4 15 Sudoeste 30 Sudoeste 1.4 -- -- 97
2018-05-01 03:00:00 13.5 18 Sur 31 Sur 0 -- -- 88
2018-05-01 02:00:00 13.2 18 Sudoeste 26 Sudoeste 0 -- -- 84
2018-05-01 01:00:00 13.8 18 Sudoeste 33 Sur 0 -- -- 84
2018-05-01 00:00:00 13.6 23 Sudoeste 32 Sudoeste 0 -- -- 89
2018-04-30 23:00:00 13.2 12 Sur 27 Sur 0 -- -- 88
2018-04-30 22:00:00 13.7 17 Sur 28 Sur 0 -- -- 78
2018-04-30 21:00:00 14.4 12 Sur 17 Sudoeste 0 -- -- 72
2018-04-30 20:00:00 15.2 12 Sudoeste 24 Sudoeste 0 -- -- 68
2018-04-30 19:00:00 15.6 17 Sudoeste 27 Sudoeste 0 -- -- 66
2018-04-30 18:00:00 17 19 Sudoeste 30 Sudoeste 0 -- -- 58
2018-04-30 17:00:00 17.7 21 Sudoeste 33 Sur 0 -- -- 56
2018-04-30 16:00:00 18.4 23 Sur 33 Sur 0 -- -- 59
2018-04-30 15:00:00 19.5 16 Sur 24 Sudoeste 0 -- -- 56
2018-04-30 14:00:00 19.6 14 Sur 26 Sur 0 -- -- 57
2018-04-30 13:00:00 18.9 15 Sudoeste 27 Sur 0 -- -- 58
2018-04-30 12:00:00 17.8 16 Sudoeste 28 Sudoeste 0 -- -- 58
2018-04-30 11:00:00 18.5 11 Sudoeste 24 Sudoeste 0 -- -- 55
2018-04-30 10:00:00 17.4 16 Oeste 27 Oeste 0 -- -- 58
2018-04-30 09:00:00 16.3 14 Sudoeste 25 Sudoeste 0 -- -- 72
2018-04-30 08:00:00 14.5 16 Sudoeste 24 Sur 0 -- -- 86
2018-04-30 07:00:00 12.9 10 Sudoeste 22 Sudoeste 0 -- -- 92
2018-04-30 06:00:00 13.3 16 Sudoeste 28 Sudoeste 0 -- -- 90
2018-04-30 05:00:00 13.3 16 Sudoeste 31 Sudoeste 0 -- -- 91
2018-04-30 04:00:00 13.7 23 Sudoeste 33 Sudoeste 0 -- -- 89
2018-04-30 03:00:00 13.9 22 Sudoeste 36 Sudoeste 0 -- -- 91
2018-04-30 02:00:00 14 23 Sudoeste 44 Sudoeste 0 -- -- 90
2018-04-30 01:00:00 14.3 32 Sudoeste 45 Sudoeste 0 -- -- 87
2018-04-30 00:00:00 14.3 27 Sudoeste 48 Sudoeste 0 -- -- 87
2018-04-29 23:00:00 14.6 32 Sudoeste 54 Sudoeste 0 -- -- 85
2018-04-29 22:00:00 14.6 29 Sudoeste 44 Sudoeste 0 -- -- 84
2018-04-29 21:00:00 14.6 23 Sudoeste 48 Sudoeste 0 -- -- 83
2018-04-29 20:00:00 15.8 32 Sudoeste 58 Sudoeste 0 -- -- 74
2018-04-29 19:00:00 16.8 41 Sudoeste 58 Sudoeste 0 -- -- 67
2018-04-29 18:00:00 17.9 36 Sudoeste 59 Sudoeste 0 -- -- 66
2018-04-29 17:00:00 17.9 38 Sudoeste 68 Sudoeste 0 -- -- 69
2018-04-29 16:00:00 18.2 37 Sudoeste 66 Sudoeste 0 -- -- 71
2018-04-29 15:00:00 16.5 39 Sudoeste 63 Sudoeste 0 -- -- 82
2018-04-29 14:00:00 16.6 38 Sudoeste 59 Sudoeste 0 -- -- 83
2018-04-29 13:00:00 16.3 30 Sudoeste 55 Sudoeste 0 -- -- 83
2018-04-29 12:00:00 14.5 28 Sur 49 Sudoeste 0.8 -- -- 90
2018-04-29 11:00:00 15.3 35 Sudoeste 47 Sudoeste 0.2 -- -- 86
2018-04-29 10:00:00 17.4 23 Sudoeste 39 Sur 0 -- -- 82
2018-04-29 09:00:00 17 22 Sur 37 Sur 0 -- -- 84
2018-04-29 08:00:00 15.7 23 Sur 37 Sur 0 -- -- 93
2018-04-29 07:00:00 14.6 11 Sur 19 Sur 0 -- -- 96
2018-04-29 06:00:00 14.9 13 Sur 27 Sur 0 -- -- 93
2018-04-29 05:00:00 15.6 22 Sur 40 Sur 0 -- -- 89
2018-04-29 04:00:00 15.7 29 Sur 43 Sur 0 -- -- 89
2018-04-29 03:00:00 15.6 25 Sur 43 Sur 0 -- -- 86
2018-04-29 02:00:00 15.7 26 Sur 42 Sur 0 -- -- 89
2018-04-29 01:00:00 15.6 27 Sur 41 Sur 0 -- -- 87
2018-04-29 00:00:00 15.7 20 Sur 34 Sur 0 -- -- 85
2018-04-28 23:00:00 15.7 22 Sur 35 Sur 0 -- -- 85
2018-04-28 22:00:00 15.6 21 Sur 33 Sur 0 -- -- 85
2018-04-28 21:00:00 16 22 Sur 33 Sur 0 -- -- 81
2018-04-28 20:00:00 16.9 21 Sur 34 Sudoeste 0 -- -- 74
2018-04-28 19:00:00 18.3 24 Sur 37 Sur 0 -- -- 65
2018-04-28 18:00:00 19.3 24 Sur 39 Sur 0 -- -- 61
2018-04-28 17:00:00 20 24 Sur 35 Sudoeste 0 -- -- 57
2018-04-28 16:00:00 19.8 23 Sur 34 Sur 0 -- -- 62
2018-04-28 15:00:00 20.8 21 Sur 33 Sudoeste 0 -- -- 58
2018-04-28 14:00:00 20.8 23 Sudoeste 36 Sur 0 -- -- 53
2018-04-28 13:00:00 20 25 Sur 35 Sudoeste 0 -- -- 59
2018-04-28 12:00:00 20 20 Sur 34 Sur -- -- -- 61
2018-04-28 11:00:00 18.8 22 Sur 31 Sur 0 -- -- 64
2018-04-28 10:00:00 17.7 17 Sur 31 Sudoeste 0 -- -- 71
2018-04-28 09:00:00 16.7 20 Sudoeste 31 Sudoeste 0 -- -- 79
2018-04-28 08:00:00 15.1 17 Sudoeste 28 Sur 0 -- -- 93
2018-04-28 07:00:00 13.8 12 Sudoeste 22 Sur 0 -- -- 97
2018-04-28 06:00:00 13.6 13 Sur 17 Sur 0 -- -- 92
2018-04-28 05:00:00 13.3 8 Sur 14 Sudeste 0 -- -- 88
2018-04-28 04:00:00 13.8 11 Sur 15 Sur 0 -- -- 84
2018-04-28 03:00:00 14.2 9 Sur 13 Sur 0 -- -- 81
2018-04-28 02:00:00 15.4 7 Sur 14 Sudoeste 0 -- -- 66
2018-04-28 01:00:00 15.4 12 Sudoeste 17 Sudoeste 0 -- -- 65
2018-04-28 00:00:00 14.7 8 Sur 13 Sur 0 -- -- 80
2018-04-27 23:00:00 14.7 9 Sur 18 Sur 0 -- -- 80
2018-04-27 22:00:00 15.7 14 Sur 24 Sudoeste 0 -- -- 73
2018-04-27 21:00:00 16.4 15 Sudoeste 21 Sudoeste 0 -- -- 75
2018-04-27 20:00:00 17.7 12 Sudoeste 23 Sudoeste 0 -- -- 70
2018-04-27 19:00:00 19.6 14 Sudoeste 25 Sur 0 -- -- 59
2018-04-27 18:00:00 21.7 15 Sudoeste 24 Sudoeste 0 -- -- 44
2018-04-27 17:00:00 21.4 16 Sur 23 Sur 0 -- -- 44
2018-04-27 16:00:00 20.5 9 Norte 19 Nordeste 0 -- -- 61
2018-04-27 15:00:00 19.9 12 Norte 22 Norte 0 -- -- 69
2018-04-27 14:00:00 20.2 15 Norte 23 Norte 0 -- -- 67
2018-04-27 13:00:00 20.2 14 Norte 22 Norte 0 -- -- 66
2018-04-27 12:00:00 19.5 12 Norte 21 Norte 0 -- -- 68
2018-04-27 11:00:00 19.4 13 Norte 19 Noroeste 0 -- -- 67
2018-04-27 10:00:00 17.6 12 Norte 18 Norte 0 -- -- 82
2018-04-27 09:00:00 14.6 5 Norte 8 Noroeste 0 -- -- 97
2018-04-27 08:00:00 13.6 0 Calma 6 Noroeste 0 -- -- 97
2018-04-27 07:00:00 13.3 3 Noroeste 16 Norte 0 -- -- 97
2018-04-27 06:00:00 13.6 6 Norte 24 Noroeste 0 -- -- 96
2018-04-27 05:00:00 13.5 11 Norte 21 Norte 0 -- -- 94
2018-04-27 04:00:00 13.3 8 Norte 13 Norte 0 -- -- 89
2018-04-27 03:00:00 12.6 6 Norte 11 Noroeste 0 -- -- 92
2018-04-27 02:00:00 13.1 5 Norte 6 Norte 0 -- -- 81
2018-04-27 01:00:00 13.1 2 Oeste 5 Oeste 0 -- -- 78
2018-04-27 00:00:00 12.9 4 Oeste 6 Oeste 0 -- -- 80
2018-04-26 23:00:00 13.2 0 Calma 6 Sur 0 -- -- 80
2018-04-26 22:00:00 13.2 6 Noroeste 8 Noroeste 0 -- -- 81
2018-04-26 21:00:00 14.7 2 Noroeste 21 Norte 0 -- -- 74
2018-04-26 20:00:00 15.3 12 Norte 30 Norte 0 -- -- 74
2018-04-26 19:00:00 16.2 21 Norte 45 Norte 0 -- -- 69
2018-04-26 18:00:00 16.5 24 Norte 47 Norte 0 -- -- 66
2018-04-26 17:00:00 16.5 31 Norte 45 Nordeste 0 -- -- 67
2018-04-26 16:00:00 16.8 27 Norte 52 Nordeste 0 -- -- 68
2018-04-26 15:00:00 17.7 35 Norte 55 Nordeste 0 -- -- 65
2018-04-26 14:00:00 17.4 32 Norte 50 Norte 0 -- -- 67
2018-04-26 13:00:00 17.1 32 Norte 53 Nordeste 0 -- -- 67
2018-04-26 12:00:00 16.7 27 Norte 49 Norte 0 -- -- 68
2018-04-26 11:00:00 16.6 25 Norte 51 Norte 0 -- -- 69
2018-04-26 10:00:00 16.5 31 Nordeste 49 Nordeste 0 -- -- 70
2018-04-26 09:00:00 16.6 25 Nordeste 44 Nordeste 0 -- -- 73
2018-04-26 08:00:00 16.3 24 Nordeste 37 Nordeste 0 -- -- 76
2018-04-26 07:00:00 16.2 22 Nordeste 35 Nordeste -- -- -- 74
2018-04-26 06:00:00 16.1 23 Nordeste 37 Nordeste 0 -- -- 79
2018-04-26 05:00:00 16.1 25 Nordeste 36 Nordeste 0 -- -- 84
2018-04-26 04:00:00 16.3 17 Nordeste 32 Norte 0 -- -- 89
2018-04-26 03:00:00 16.7 19 Nordeste 32 Nordeste 0 -- -- 90
2018-04-26 02:00:00 16.8 17 Nordeste 26 Nordeste 0 -- -- 92
2018-04-26 01:00:00 16.2 8 Norte 16 Norte -- -- -- 95
2018-04-26 00:00:00 16.4 10 Norte 16 Norte 0 -- -- 94
2018-04-25 23:00:00 16.8 6 Norte 13 Nordeste 0 -- -- 88
2018-04-25 22:00:00 17.1 10 Norte 13 Norte 0 -- -- 82
2018-04-25 21:00:00 17.9 4 Sur 11 Nordeste 0 -- -- 71
2018-04-25 20:00:00 18.5 5 Nordeste 14 Este 0 -- -- 77
2018-04-25 19:00:00 18.9 14 Sudeste 22 Sudeste 0 -- -- 81
2018-04-25 18:00:00 18.9 13 Nordeste 20 Nordeste 0 -- -- 84
2018-04-25 17:00:00 20.5 11 Norte 23 Nordeste 0 -- -- 75
2018-04-25 16:00:00 21.8 13 Nordeste 25 Nordeste 0 -- -- 68
2018-04-25 15:00:00 24.2 14 Este 34 Nordeste 0 -- -- 55
2018-04-25 14:00:00 23.9 14 Este 32 Este 0 -- -- 51
2018-04-25 13:00:00 23.5 14 Este 25 Este 0 -- -- 52
2018-04-25 12:00:00 22.1 12 Nordeste 34 Nordeste 0 -- -- 60
2018-04-25 11:00:00 19.8 15 Nordeste 31 Nordeste 0 -- -- 72
2018-04-25 10:00:00 18.8 21 Nordeste 28 Nordeste 0 -- -- 76
2018-04-25 09:00:00 16.9 13 Nordeste 18 Nordeste 0 -- -- 87
2018-04-25 08:00:00 15 8 Norte 11 Norte 0 -- -- 89
2018-04-25 07:00:00 14.2 4 Noroeste 9 Noroeste 0 -- -- 87
2018-04-25 06:00:00 14.1 3 Oeste 6 Oeste 0 -- -- 95
2018-04-25 05:00:00 14.1 6 Nordeste 6 Norte 0 -- -- 92
2018-04-25 04:00:00 14.1 0 Calma 4 Oeste 0 -- -- 86
2018-04-25 03:00:00 14.4 2 Norte 8 Norte 0 -- -- 79
2018-04-25 02:00:00 14.8 4 Noroeste 9 Oeste 0 -- -- 76
2018-04-25 01:00:00 15.8 6 Norte 12 Nordeste 0 -- -- 69
2018-04-25 00:00:00 16.3 4 Sudoeste 7 Oeste -- -- -- 64
2018-04-24 23:00:00 17.2 4 Nordeste 14 Este 0 -- -- 61
2018-04-24 22:00:00 17.2 3 Noroeste 8 Este 0 -- -- 64
2018-04-24 21:00:00 17.8 9 Este 23 Este 0 -- -- 67
2018-04-24 20:00:00 18.9 7 Este 21 Este 0 -- -- 60
2018-04-24 19:00:00 20 10 Nordeste 24 Nordeste 0 -- -- 59
2018-04-24 18:00:00 21.3 16 Nordeste 26 Nordeste 0 -- -- 56
2018-04-24 17:00:00 21.9 18 Nordeste 26 Nordeste 0 -- -- 50
2018-04-24 16:00:00 21.9 15 Nordeste 24 Nordeste 0 -- -- 44
2018-04-24 15:00:00 22.6 15 Nordeste 25 Nordeste 0 -- -- 45
2018-04-24 14:00:00 23.4 16 Nordeste 22 Nordeste 0 -- -- 40
2018-04-24 13:00:00 23.6 11 Norte 21 Nordeste 0 -- -- 48
2018-04-24 12:00:00 23.1 14 Nordeste 26 Este 0 -- -- 50
2018-04-24 11:00:00 23.7 13 Nordeste 24 Este -- -- -- 39
2018-04-24 10:00:00 22.6 8 Este 19 Este 0 -- -- 43
2018-04-24 09:00:00 19.3 0 Calma 18 Sudeste 0 -- -- 61
2018-04-24 08:00:00 16.7 9 Sudeste 18 Sudeste 0 -- -- 68
2018-04-24 07:00:00 14.2 3 Norte 7 Nordeste 0 -- -- 80
2018-04-24 06:00:00 13.9 5 Norte 13 Nordeste 0 -- -- 85
2018-04-24 05:00:00 14.9 4 Norte 10 Nordeste 0 -- -- 64
2018-04-24 04:00:00 14.4 3 Oeste 8 Oeste 0 -- -- 67
2018-04-24 03:00:00 14.7 3 Noroeste 11 Nordeste 0 -- -- 76
2018-04-24 02:00:00 15.1 0 Calma 8 Nordeste 0 -- -- 83
2018-04-24 01:00:00 14.9 6 Norte 9 Nordeste 0 -- -- 95
2018-04-24 00:00:00 15.3 0 Calma 8 Norte 0 -- -- 97